Time;durP1;ratioP1;P1;durP2;ratioP2;P2;SDS_P1;SDS_P2;PMS_P1;PMS_P2;Temp;Humidity;BMP_temperature;BMP_pressure;BME280_temperature;BME280_humidity;BME280_pressure;Samples;Min_cycle;Max_cycle;Signal;HPM_P1;HPM_P2
2024/03/19 00:00:48;;;;;;;6.20;1.10;;;6.00;99.90;;;;;;5042929;28;20393;-73
2024/03/19 00:03:14;;;;;;;1.00;0.65;;;5.90;99.90;;;;;;5045952;28;20048;-73
2024/03/19 00:05:41;;;;;;;3.00;0.57;;;6.00;99.90;;;;;;5057163;28;20477;-73
2024/03/19 00:08:07;;;;;;;2.15;0.68;;;6.00;99.90;;;;;;5042591;28;20384;-73
2024/03/19 00:10:32;;;;;;;1.33;0.52;;;6.00;99.90;;;;;;5043745;28;20047;-73
2024/03/19 00:12:58;;;;;;;0.95;0.40;;;6.00;99.90;;;;;;5044298;28;20041;-73
2024/03/19 00:15:24;;;;;;;1.10;0.60;;;6.00;99.90;;;;;;5058271;28;20059;-73
2024/03/19 00:17:52;;;;;;;1.20;0.65;;;6.00;99.90;;;;;;5060865;28;20097;-73
2024/03/19 00:20:19;;;;;;;1.27;0.73;;;6.00;99.90;;;;;;5061236;28;20415;-73
2024/03/19 00:22:44;;;;;;;3.13;0.77;;;6.00;99.90;;;;;;5050228;28;20032;-74
2024/03/19 00:25:10;;;;;;;1.02;0.60;;;6.00;99.90;;;;;;5057366;28;20563;-73
2024/03/19 00:27:36;;;;;;;1.55;0.55;;;5.90;99.90;;;;;;5052537;28;20098;-74
2024/03/19 00:30:09;;;;;;;0.88;0.52;;;5.90;99.90;;;;;;5045047;28;20447;-73
2024/03/19 00:32:35;;;;;;;1.05;0.73;;;5.80;99.90;;;;;;5061236;28;20236;-73
2024/03/19 00:35:01;;;;;;;0.50;0.30;;;5.80;99.90;;;;;;5061177;28;20133;-73
2024/03/19 00:37:27;;;;;;;1.40;0.50;;;5.80;99.90;;;;;;5057364;28;20077;-74
2024/03/19 00:39:53;;;;;;;2.33;1.23;;;5.80;99.90;;;;;;5043271;28;20055;-74
2024/03/19 00:42:19;;;;;;;0.95;0.60;;;5.80;99.90;;;;;;5056338;28;20029;-76
2024/03/19 00:44:45;;;;;;;0.95;0.60;;;5.80;99.90;;;;;;5055685;28;20040;-75
2024/03/19 00:47:10;;;;;;;6.30;1.42;;;5.80;99.90;;;;;;5060478;28;20040;-75
2024/03/19 00:49:36;;;;;;;1.55;0.95;;;5.80;99.90;;;;;;5063740;28;20080;-74
2024/03/19 00:52:03;;;;;;;7.03;1.02;;;5.90;99.90;;;;;;5058601;28;20042;-73
2024/03/19 00:54:29;;;;;;;2.63;1.63;;;5.90;99.90;;;;;;5039803;28;20508;-73
2024/03/19 00:56:55;;;;;;;1.17;0.88;;;6.00;99.90;;;;;;5051140;28;20044;-73
2024/03/19 00:59:21;;;;;;;6.43;1.85;;;6.00;99.90;;;;;;5062232;28;20051;-73
2024/03/19 01:01:46;;;;;;;1.45;1.05;;;6.10;99.90;;;;;;5059457;28;20068;-73
2024/03/19 01:04:13;;;;;;;2.55;1.08;;;6.10;99.90;;;;;;5051404;28;20048;-73
2024/03/19 01:06:39;;;;;;;1.15;0.70;;;6.10;99.90;;;;;;5046402;28;20040;-74
2024/03/19 01:09:14;;;;;;;2.60;0.90;;;6.20;99.90;;;;;;5064138;28;20141;-73
2024/03/19 01:11:41;;;;;;;5.05;1.55;;;6.20;99.90;;;;;;5059295;28;20069;-74
2024/03/19 01:14:07;;;;;;;3.40;0.98;;;6.30;99.90;;;;;;5049831;28;20047;-74
2024/03/19 01:16:33;;;;;;;6.72;1.08;;;6.40;99.90;;;;;;5044305;28;20045;-73
2024/03/19 01:18:59;;;;;;;2.08;1.20;;;6.30;99.90;;;;;;5046923;28;20040;-73
2024/03/19 01:21:25;;;;;;;3.35;1.52;;;6.40;99.90;;;;;;5056845;28;20472;-73
2024/03/19 01:23:51;;;;;;;2.55;1.23;;;6.50;99.90;;;;;;5044472;28;20074;-73
2024/03/19 01:26:18;;;;;;;2.85;1.77;;;6.60;99.90;;;;;;5056919;28;20062;-73
2024/03/19 01:28:44;;;;;;;3.20;1.40;;;6.50;99.90;;;;;;5055130;28;20427;-73
2024/03/19 01:31:09;;;;;;;1.85;1.17;;;6.50;99.90;;;;;;5054360;28;20425;-73
2024/03/19 01:33:35;;;;;;;2.75;1.00;;;6.60;99.90;;;;;;5056763;28;20170;-73
2024/03/19 01:36:01;;;;;;;1.75;1.20;;;6.60;99.90;;;;;;5056427;28;20071;-73
2024/03/19 01:38:27;;;;;;;3.38;1.50;;;6.60;99.90;;;;;;5059571;28;20036;-73
2024/03/19 01:40:52;;;;;;;4.18;1.60;;;6.70;99.90;;;;;;5050299;28;20485;-74
2024/03/19 01:43:19;;;;;;;4.40;1.55;;;6.60;99.90;;;;;;5060809;28;20044;-74
2024/03/19 01:46:05;;;;;;;2.33;1.58;;;6.70;99.90;;;;;;5039796;28;20102;-74
2024/03/19 01:48:31;;;;;;;0.98;0.70;;;6.70;99.90;;;;;;5078776;28;20420;-73
2024/03/19 01:50:57;;;;;;;5.35;1.60;;;6.60;99.90;;;;;;5057595;28;20043;-73
2024/03/19 01:53:23;;;;;;;3.38;1.52;;;6.70;99.90;;;;;;5049485;28;20081;-73
2024/03/19 01:55:48;;;;;;;5.07;1.08;;;6.70;99.90;;;;;;5052853;28;20035;-74
2024/03/19 01:58:14;;;;;;;0.95;0.77;;;6.70;99.90;;;;;;5066137;28;20063;-73
2024/03/19 02:00:40;;;;;;;1.50;1.20;;;6.70;99.90;;;;;;5053072;28;20466;-73
2024/03/19 02:03:05;;;;;;;3.20;1.80;;;6.70;99.90;;;;;;5061426;28;20045;-74
2024/03/19 02:05:31;;;;;;;4.65;1.35;;;6.70;99.90;;;;;;5048979;28;20033;-73
2024/03/19 02:07:57;;;;;;;3.35;1.40;;;6.70;99.90;;;;;;5052589;28;20580;-73
2024/03/19 02:10:22;;;;;;;2.45;1.30;;;6.70;99.90;;;;;;5051326;28;20106;-73
2024/03/19 02:12:48;;;;;;;2.70;1.38;;;6.70;99.90;;;;;;5054177;28;20036;-73
2024/03/19 02:15:14;;;;;;;6.63;2.05;;;6.70;99.90;;;;;;5068076;28;20074;-73
2024/03/19 02:17:40;;;;;;;2.40;1.80;;;6.70;99.90;;;;;;5048661;28;20036;-73
2024/03/19 02:20:12;;;;;;;2.05;1.15;;;6.70;99.90;;;;;;5061378;28;20419;-74
2024/03/19 02:22:46;;;;;;;3.30;1.20;;;6.70;99.90;;;;;;5057294;28;20583;-73
2024/03/19 02:25:13;;;;;;;4.03;1.40;;;6.80;99.90;;;;;;5056057;28;20050;-74
2024/03/19 02:27:40;;;;;;;5.80;2.00;;;6.80;99.90;;;;;;5063613;28;20119;-73
2024/03/19 02:30:08;;;;;;;5.78;2.10;;;6.80;99.90;;;;;;5062845;28;20040;-74
2024/03/19 02:32:34;;;;;;;5.85;1.98;;;6.80;99.90;;;;;;5052634;28;20032;-73
2024/03/19 02:35:00;;;;;;;4.13;2.03;;;6.80;99.90;;;;;;5067089;28;20086;-74
2024/03/19 02:37:29;;;;;;;5.35;1.20;;;6.90;99.90;;;;;;5044753;28;20071;-74
2024/03/19 02:39:55;;;;;;;2.72;1.90;;;6.90;99.90;;;;;;5063849;28;20141;-73
2024/03/19 02:42:21;;;;;;;2.28;1.02;;;6.90;99.90;;;;;;5061367;28;20044;-73
2024/03/19 02:44:47;;;;;;;3.85;1.75;;;7.00;99.90;;;;;;5075667;28;20040;-74
2024/03/19 02:47:13;;;;;;;4.97;2.35;;;7.00;99.90;;;;;;5066424;28;20040;-73
2024/03/19 02:49:39;;;;;;;3.95;2.33;;;7.00;99.90;;;;;;5062082;28;20048;-74
2024/03/19 02:52:05;;;;;;;4.35;1.80;;;7.00;99.90;;;;;;5083835;28;20037;-73
2024/03/19 02:54:33;;;;;;;4.65;2.42;;;7.10;99.90;;;;;;5065933;28;20036;-73
2024/03/19 02:56:59;;;;;;;3.42;1.50;;;7.10;99.90;;;;;;5047145;28;20184;-73
2024/03/19 02:59:24;;;;;;;3.72;1.88;;;7.10;99.90;;;;;;5045082;28;20127;-73
2024/03/19 03:01:50;;;;;;;4.60;1.88;;;7.20;99.90;;;;;;5049209;28;20051;-73
2024/03/19 03:04:16;;;;;;;7.93;2.80;;;7.20;99.90;;;;;;5060312;28;20077;-73
2024/03/19 03:06:41;;;;;;;13.57;2.60;;;7.20;99.90;;;;;;5044604;28;20097;-73
2024/03/19 03:09:09;;;;;;;4.65;2.67;;;7.30;99.90;;;;;;5065457;28;20507;-72
2024/03/19 03:11:35;;;;;;;4.20;2.53;;;7.30;99.90;;;;;;5045220;28;20047;-73
2024/03/19 03:14:01;;;;;;;5.43;1.95;;;7.30;99.90;;;;;;5059808;28;20510;-73
2024/03/19 03:16:27;;;;;;;6.35;2.88;;;7.30;99.90;;;;;;5056111;28;20032;-73
2024/03/19 03:18:52;;;;;;;7.30;2.83;;;7.40;99.90;;;;;;5064388;28;20506;-74
2024/03/19 03:21:18;;;;;;;7.45;3.30;;;7.40;99.90;;;;;;5056555;28;20039;-74
2024/03/19 03:23:44;;;;;;;4.80;2.30;;;7.40;99.90;;;;;;5055509;28;20044;-73
2024/03/19 03:26:10;;;;;;;4.15;2.35;;;7.40;99.90;;;;;;5061237;28;20162;-73
2024/03/19 03:28:36;;;;;;;5.97;3.28;;;7.50;99.90;;;;;;5041250;28;20128;-73
2024/03/19 03:31:04;;;;;;;9.10;3.63;;;7.50;99.90;;;;;;5058273;28;20126;-73
2024/03/19 03:33:30;;;;;;;5.43;2.22;;;7.60;99.90;;;;;;5077794;28;20484;-73
2024/03/19 03:35:57;;;;;;;6.20;2.30;;;7.60;99.90;;;;;;5064008;28;20044;-73
2024/03/19 03:38:23;;;;;;;4.80;2.75;;;7.60;99.90;;;;;;5052450;28;20047;-73
2024/03/19 03:40:48;;;;;;;6.97;2.22;;;7.70;99.90;;;;;;5068069;28;20040;-73
2024/03/19 03:43:14;;;;;;;4.47;2.65;;;7.70;99.90;;;;;;5066528;28;20037;-73
2024/03/19 03:45:40;;;;;;;9.25;3.17;;;7.80;99.90;;;;;;5065255;28;20531;-73
2024/03/19 03:48:06;;;;;;;4.05;2.85;;;7.80;99.90;;;;;;5069602;28;20048;-74
2024/03/19 03:50:33;;;;;;;6.05;2.40;;;7.80;99.90;;;;;;5058808;28;20234;-74
2024/03/19 03:52:58;;;;;;;9.57;3.90;;;7.90;99.90;;;;;;5064557;28;20044;-74
2024/03/19 03:55:24;;;;;;;5.05;2.13;;;7.80;99.90;;;;;;5059039;28;20044;-74
2024/03/19 03:57:50;;;;;;;8.95;3.97;;;7.90;99.90;;;;;;5066839;28;20044;-74
2024/03/19 04:00:18;;;;;;;8.45;2.92;;;7.90;99.90;;;;;;5064270;28;20051;-73
2024/03/19 04:02:45;;;;;;;4.82;2.78;;;7.90;99.90;;;;;;5051638;28;20048;-73
2024/03/19 04:05:11;;;;;;;12.80;2.35;;;7.90;99.90;;;;;;5050076;28;20041;-73
2024/03/19 04:07:41;;;;;;;7.25;2.60;;;8.00;99.90;;;;;;5063163;28;20039;-74
2024/03/19 04:10:08;;;;;;;15.23;3.15;;;8.00;99.90;;;;;;5038744;28;20045;-74
2024/03/19 04:12:35;;;;;;;6.18;2.35;;;8.00;99.90;;;;;;5054776;28;20040;-73
2024/03/19 04:15:01;;;;;;;6.43;2.50;;;8.10;99.90;;;;;;5051230;28;20037;-73
2024/03/19 04:17:28;;;;;;;5.55;2.47;;;8.10;99.90;;;;;;5060344;28;20075;-74
2024/03/19 04:19:53;;;;;;;6.93;2.03;;;8.10;99.90;;;;;;5046986;28;20036;-73
2024/03/19 04:22:19;;;;;;;3.83;2.10;;;8.10;99.90;;;;;;5042848;28;20107;-73
2024/03/19 04:24:46;;;;;;;8.80;2.45;;;8.10;99.90;;;;;;5062789;28;20043;-73
2024/03/19 04:27:12;;;;;;;5.32;2.78;;;8.10;99.90;;;;;;5060937;28;20070;-73
2024/03/19 04:29:38;;;;;;;8.43;2.70;;;8.10;99.90;;;;;;5049586;28;20377;-73
2024/03/19 04:32:04;;;;;;;7.90;2.70;;;8.10;99.90;;;;;;5061956;28;20053;-73
2024/03/19 04:34:29;;;;;;;3.72;2.58;;;8.10;99.90;;;;;;5058489;28;20045;-74
2024/03/19 04:36:55;;;;;;;5.22;1.70;;;8.20;99.90;;;;;;5097112;28;20040;-74
2024/03/19 04:39:21;;;;;;;5.20;2.35;;;8.20;99.90;;;;;;5058642;28;20128;-74
2024/03/19 04:41:47;;;;;;;3.28;2.13;;;8.20;99.90;;;;;;5066371;28;20041;-73
2024/03/19 04:44:13;;;;;;;4.72;1.88;;;8.20;99.90;;;;;;5061975;28;20113;-73
2024/03/19 04:46:39;;;;;;;6.88;2.22;;;8.20;99.90;;;;;;5070111;28;20488;-73
2024/03/19 04:49:05;;;;;;;5.07;2.38;;;8.20;99.90;;;;;;5063977;28;20053;-73
2024/03/19 04:51:31;;;;;;;7.35;2.95;;;8.20;99.90;;;;;;5060196;28;20052;-72
2024/03/19 04:53:57;;;;;;;3.55;1.88;;;8.30;99.90;;;;;;5056716;28;20028;-73
2024/03/19 04:56:23;;;;;;;5.43;2.13;;;8.20;99.90;;;;;;5066661;28;20098;-73
2024/03/19 04:58:49;;;;;;;5.72;1.77;;;8.20;99.90;;;;;;5050307;28;20040;-73
2024/03/19 05:01:17;;;;;;;6.47;2.58;;;8.30;99.90;;;;;;5062428;28;20040;-73
2024/03/19 05:03:43;;;;;;;7.70;2.63;;;8.30;99.90;;;;;;5055956;28;20045;-73
2024/03/19 05:06:09;;;;;;;4.70;1.88;;;8.30;99.90;;;;;;5055717;28;20048;-73
2024/03/19 05:08:39;;;;;;;5.07;1.88;;;8.30;99.90;;;;;;5056993;28;20122;-73
2024/03/19 05:11:04;;;;;;;8.07;2.17;;;8.30;99.90;;;;;;5072606;28;20047;-73
2024/03/19 05:13:31;;;;;;;6.22;1.70;;;8.30;99.90;;;;;;5056721;28;20120;-74
2024/03/19 05:15:56;;;;;;;5.82;1.85;;;8.30;99.90;;;;;;5064951;28;20543;-74
2024/03/19 05:18:23;;;;;;;3.97;1.85;;;8.30;99.90;;;;;;5067450;28;20131;-73
2024/03/19 05:20:49;;;;;;;4.47;1.55;;;8.30;99.90;;;;;;5059256;28;20062;-73
2024/03/19 05:23:15;;;;;;;2.03;1.55;;;8.40;99.90;;;;;;5044679;28;20056;-73
2024/03/19 05:25:44;;;;;;;6.63;2.22;;;8.40;99.90;;;;;;5060839;28;20045;-73
2024/03/19 05:28:10;;;;;;;2.70;1.88;;;8.40;99.90;;;;;;5059341;28;20037;-73
2024/03/19 05:30:37;;;;;;;3.53;1.83;;;8.30;99.90;;;;;;5059737;28;20488;-73
2024/03/19 05:33:02;;;;;;;3.60;1.60;;;8.40;99.90;;;;;;5070237;28;20349;-74
2024/03/19 05:35:28;;;;;;;3.03;1.85;;;8.40;99.90;;;;;;5047128;28;20124;-73
2024/03/19 05:37:54;;;;;;;3.65;1.85;;;8.40;99.90;;;;;;5043875;28;20089;-73
2024/03/19 05:40:20;;;;;;;7.70;2.45;;;8.40;99.90;;;;;;5041220;28;20106;-73
2024/03/19 05:42:46;;;;;;;7.47;2.00;;;8.50;99.90;;;;;;5056873;28;20041;-73
2024/03/19 05:45:12;;;;;;;3.53;1.90;;;8.50;99.90;;;;;;5061447;28;20046;-73
2024/03/19 05:47:39;;;;;;;2.75;1.55;;;8.50;99.90;;;;;;5057786;28;20040;-74
2024/03/19 05:50:08;;;;;;;1.67;1.10;;;8.50;99.90;;;;;;5046766;28;20148;-73
2024/03/19 05:52:34;;;;;;;4.72;2.13;;;8.50;99.90;;;;;;5045123;28;20032;-73
2024/03/19 05:54:59;;;;;;;5.90;2.20;;;8.50;99.90;;;;;;5049033;28;20093;-73
2024/03/19 05:57:25;;;;;;;3.97;1.88;;;8.50;99.90;;;;;;5042690;28;20033;-73
2024/03/19 05:59:51;;;;;;;3.40;1.48;;;8.50;99.90;;;;;;5057146;28;20044;-73
2024/03/19 06:02:16;;;;;;;2.97;2.05;;;8.50;99.90;;;;;;5058509;28;20040;-74
2024/03/19 06:04:42;;;;;;;4.82;1.55;;;8.60;99.90;;;;;;5060820;28;20045;-73
2024/03/19 06:07:08;;;;;;;2.28;1.67;;;8.50;99.90;;;;;;5059558;28;20041;-74
2024/03/19 06:09:33;;;;;;;2.95;1.23;;;8.60;99.90;;;;;;5056413;28;20060;-74
2024/03/19 06:11:59;;;;;;;4.65;2.35;;;8.60;99.90;;;;;;5046474;28;20032;-73
2024/03/19 06:14:25;;;;;;;4.13;2.45;;;8.60;99.90;;;;;;5047500;28;20423;-74
2024/03/19 06:16:51;;;;;;;3.30;1.63;;;8.60;99.90;;;;;;5044887;28;20397;-73
2024/03/19 06:19:17;;;;;;;5.15;2.78;;;8.60;99.90;;;;;;5057872;28;20040;-73
2024/03/19 06:21:45;;;;;;;3.40;1.55;;;8.70;99.90;;;;;;5060060;28;20048;-73
2024/03/19 06:24:11;;;;;;;6.13;2.58;;;8.60;99.90;;;;;;5053561;28;20040;-73
2024/03/19 06:26:38;;;;;;;4.10;1.98;;;8.70;99.90;;;;;;5041330;28;20110;-74
2024/03/19 06:29:04;;;;;;;4.90;2.17;;;8.70;99.90;;;;;;5054113;28;20127;-73
2024/03/19 06:31:33;;;;;;;3.35;1.98;;;8.60;99.90;;;;;;5052545;28;20521;-73
2024/03/19 06:33:58;;;;;;;3.10;2.03;;;8.70;99.90;;;;;;5052023;28;20041;-74
2024/03/19 06:36:24;;;;;;;3.33;1.67;;;8.80;99.90;;;;;;5054061;28;20408;-72
2024/03/19 06:38:50;;;;;;;6.45;2.83;;;8.80;99.90;;;;;;5061314;28;20123;-73
2024/03/19 06:41:16;;;;;;;3.33;2.33;;;8.90;99.90;;;;;;5048495;28;20036;-73
2024/03/19 06:43:42;;;;;;;3.03;1.58;;;8.90;99.90;;;;;;5040065;28;20040;-73
2024/03/19 06:46:08;;;;;;;2.95;1.67;;;8.90;99.90;;;;;;5057693;28;20381;-73
2024/03/19 06:48:34;;;;;;;4.78;2.30;;;9.00;99.90;;;;;;5058881;28;20056;-73
2024/03/19 06:51:00;;;;;;;5.80;2.00;;;9.10;99.90;;;;;;5062334;28;20095;-73
2024/03/19 06:53:27;;;;;;;4.13;2.00;;;9.20;99.90;;;;;;5045310;28;20036;-72
2024/03/19 06:55:54;;;;;;;5.68;2.80;;;9.20;99.90;;;;;;5047817;28;20036;-72
2024/03/19 06:58:20;;;;;;;5.00;2.15;;;9.30;99.90;;;;;;5045780;28;20429;-73
2024/03/19 07:00:51;;;;;;;4.18;1.77;;;9.40;99.90;;;;;;5061926;28;20593;-73
2024/03/19 07:03:20;;;;;;;6.35;2.80;;;9.50;99.90;;;;;;5059910;28;20040;-73
2024/03/19 07:05:46;;;;;;;3.17;2.13;;;9.60;99.90;;;;;;5065734;28;20083;-73
2024/03/19 07:08:12;;;;;;;6.82;2.38;;;9.70;99.90;;;;;;5063364;28;20067;-73
2024/03/19 07:10:38;;;;;;;9.43;1.70;;;9.80;99.90;;;;;;5053284;28;20590;-73
2024/03/19 07:13:05;;;;;;;6.13;2.20;;;9.90;99.90;;;;;;5061437;28;20040;-74
2024/03/19 07:15:31;;;;;;;2.55;1.45;;;10.00;99.90;;;;;;5054832;28;20035;-73
2024/03/19 07:17:56;;;;;;;7.38;1.60;;;10.20;99.90;;;;;;5049546;28;20447;-73
2024/03/19 07:20:24;;;;;;;5.07;1.65;;;10.30;99.90;;;;;;5055970;28;20119;-73
2024/03/19 07:22:50;;;;;;;4.15;1.73;;;10.40;99.90;;;;;;5049452;28;20058;-72
2024/03/19 07:25:16;;;;;;;3.42;1.92;;;10.40;99.90;;;;;;5062954;28;20390;-72
2024/03/19 07:27:43;;;;;;;5.60;2.30;;;10.60;99.90;;;;;;5061080;28;20131;-72
2024/03/19 07:30:13;;;;;;;5.10;2.33;;;10.70;99.90;;;;;;5062458;28;20033;-72
2024/03/19 07:32:39;;;;;;;3.70;1.60;;;10.80;99.90;;;;;;5073424;28;20045;-72
2024/03/19 07:35:07;;;;;;;6.82;2.10;;;10.90;99.90;;;;;;5069903;28;20048;-72
2024/03/19 07:37:37;;;;;;;5.97;2.60;;;10.90;99.90;;;;;;5065913;28;20055;-72
2024/03/19 07:40:13;;;;;;;4.60;2.22;;;11.00;99.90;;;;;;5064021;28;20393;-73
2024/03/19 07:42:42;;;;;;;3.78;1.73;;;11.00;99.90;;;;;;5064330;28;20090;-72
2024/03/19 07:45:08;;;;;;;4.18;1.85;;;10.90;99.90;;;;;;5053229;28;20047;-73
2024/03/19 07:47:35;;;;;;;4.40;2.35;;;10.90;99.90;;;;;;5051276;28;20032;-72
2024/03/19 07:50:02;;;;;;;3.75;2.00;;;10.80;99.90;;;;;;5048282;28;20052;-72
2024/03/19 07:52:28;;;;;;;3.72;1.73;;;10.80;99.90;;;;;;5050358;28;20040;-72
2024/03/19 07:54:53;;;;;;;3.92;2.05;;;10.70;99.90;;;;;;5049019;28;20127;-72
2024/03/19 07:57:19;;;;;;;4.43;1.42;;;10.70;99.90;;;;;;5066815;28;20404;-72
2024/03/19 07:59:45;;;;;;;3.33;2.00;;;10.80;99.90;;;;;;5062202;28;20081;-72
2024/03/19 08:02:11;;;;;;;5.82;1.45;;;10.70;99.90;;;;;;5068856;28;20395;-74
2024/03/19 08:04:37;;;;;;;4.65;1.98;;;10.70;99.90;;;;;;5061668;28;20042;-72
2024/03/19 08:07:04;;;;;;;3.22;2.05;;;10.80;99.90;;;;;;5070262;28;20044;-72
2024/03/19 08:09:29;;;;;;;6.18;2.10;;;10.80;99.90;;;;;;5062912;28;20063;-73
2024/03/19 08:11:55;;;;;;;3.85;1.60;;;10.80;99.90;;;;;;5068873;28;20111;-72
2024/03/19 08:14:21;;;;;;;4.65;1.95;;;10.80;99.90;;;;;;5054161;28;20361;-72
2024/03/19 08:16:47;;;;;;;5.88;1.98;;;10.80;99.90;;;;;;5062386;28;20112;-72
2024/03/19 08:19:13;;;;;;;2.58;1.48;;;10.90;99.90;;;;;;5050561;28;20071;-73
2024/03/19 08:21:39;;;;;;;4.88;1.85;;;10.90;99.90;;;;;;5061441;28;20037;-72
2024/03/19 08:24:05;;;;;;;3.33;1.65;;;10.90;99.90;;;;;;5066064;28;20498;-72
2024/03/19 08:26:35;;;;;;;4.28;1.88;;;10.90;99.90;;;;;;5069325;28;20075;-72
2024/03/19 08:29:01;;;;;;;3.60;1.50;;;11.00;99.90;;;;;;5062059;28;20120;-72
2024/03/19 08:31:27;;;;;;;3.70;1.65;;;11.00;99.90;;;;;;5045252;28;21082;-72
2024/03/19 08:33:53;;;;;;;2.75;2.25;;;11.00;99.90;;;;;;5055455;28;20610;-72
2024/03/19 08:36:19;;;;;;;5.95;1.42;;;11.00;99.90;;;;;;5049470;28;20476;-72
2024/03/19 08:38:45;;;;;;;4.00;1.65;;;11.00;99.90;;;;;;5070927;28;20033;-72
2024/03/19 08:41:11;;;;;;;5.65;1.50;;;11.00;99.90;;;;;;5062561;28;20091;-72
2024/03/19 08:43:36;;;;;;;4.93;1.73;;;11.10;99.90;;;;;;5065345;28;20032;-72
2024/03/19 08:46:02;;;;;;;3.65;1.17;;;11.10;99.90;;;;;;5062404;28;20854;-72
2024/03/19 08:48:28;;;;;;;4.28;2.08;;;11.10;99.90;;;;;;5067070;28;20098;-72
2024/03/19 08:50:54;;;;;;;3.55;1.50;;;11.20;99.90;;;;;;5043430;28;20044;-72
2024/03/19 08:53:21;;;;;;;9.35;1.83;;;11.30;99.90;;;;;;5067083;28;20036;-74
2024/03/19 08:55:57;;;;;;;2.47;1.10;;;11.20;99.90;;;;;;5049458;28;20434;-73
2024/03/19 08:58:23;;;;;;;7.10;1.77;;;11.30;99.90;;;;;;5063094;28;20036;-73
2024/03/19 09:00:50;;;;;;;2.92;1.00;;;11.40;99.90;;;;;;5053783;28;20051;-73
2024/03/19 09:03:15;;;;;;;3.65;1.73;;;11.40;99.90;;;;;;5065540;28;20071;-73
2024/03/19 09:05:41;;;;;;;2.80;1.45;;;11.50;99.90;;;;;;5048991;28;20072;-72
2024/03/19 09:08:07;;;;;;;4.32;1.75;;;11.60;99.90;;;;;;5059599;28;20044;-72
2024/03/19 09:10:33;;;;;;;1.70;1.20;;;11.70;99.90;;;;;;5062424;28;20592;-72
2024/03/19 09:12:59;;;;;;;3.45;1.73;;;11.80;99.90;;;;;;5068416;28;20048;-72
2024/03/19 09:15:26;;;;;;;4.18;2.13;;;12.00;99.90;;;;;;5068670;28;20106;-72
2024/03/19 09:17:55;;;;;;;1.80;1.30;;;12.00;99.90;;;;;;5054836;28;20115;-72
2024/03/19 09:20:21;;;;;;;3.05;1.75;;;12.20;99.90;;;;;;5062936;28;20042;-73
2024/03/19 09:22:49;;;;;;;1.80;1.08;;;12.30;99.90;;;;;;5065499;28;20043;-72
2024/03/19 09:25:16;;;;;;;4.47;1.20;;;12.40;99.90;;;;;;5062917;28;20093;-72
2024/03/19 09:27:42;;;;;;;2.72;1.42;;;12.50;99.90;;;;;;5065374;28;20040;-72
2024/03/19 09:30:09;;;;;;;3.25;1.92;;;12.60;99.90;;;;;;5065262;28;20044;-72
2024/03/19 09:32:37;;;;;;;2.90;1.67;;;12.80;99.90;;;;;;5060705;28;20381;-72
2024/03/19 09:35:04;;;;;;;2.00;0.88;;;12.90;99.90;;;;;;5064131;28;20495;-72
2024/03/19 09:37:31;;;;;;;5.28;1.75;;;13.20;99.90;;;;;;5045163;28;20063;-72
2024/03/19 09:39:57;;;;;;;4.53;1.58;;;13.50;99.90;;;;;;5064841;28;20051;-72
2024/03/19 09:42:24;;;;;;;4.28;1.77;;;13.80;99.90;;;;;;5062274;28;20519;-72
2024/03/19 09:44:53;;;;;;;3.13;1.30;;;14.00;99.90;;;;;;5070165;28;20058;-72
2024/03/19 09:47:20;;;;;;;2.70;1.20;;;14.30;99.90;;;;;;5060898;28;20044;-73
2024/03/19 09:49:46;;;;;;;1.38;0.82;;;14.60;99.90;;;;;;5063539;28;20049;-72
2024/03/19 09:52:16;;;;;;;3.13;1.50;;;14.80;99.90;;;;;;5059905;28;20117;-73
2024/03/19 09:54:42;;;;;;;2.63;1.42;;;14.90;99.90;;;;;;5065841;28;20097;-72
2024/03/19 09:57:17;;;;;;;2.47;1.00;;;14.80;99.90;;;;;;5069156;28;20044;-73
2024/03/19 09:59:45;;;;;;;3.58;1.27;;;15.10;99.90;;;;;;5059839;28;20106;-73
2024/03/19 10:02:16;;;;;;;3.33;1.30;;;15.60;99.90;;;;;;5040144;28;20233;-73
2024/03/19 10:04:46;;;;;;;1.73;0.95;;;15.90;99.90;;;;;;5054364;28;20127;-73
2024/03/19 10:07:16;;;;;;;2.33;0.82;;;16.10;99.90;;;;;;5094121;28;20044;-73
2024/03/19 10:09:47;;;;;;;4.25;1.20;;;16.20;99.90;;;;;;5063073;28;20047;-73
2024/03/19 10:12:13;;;;;;;0.98;0.38;;;16.20;99.90;;;;;;5060351;28;20119;-73
2024/03/19 10:14:39;;;;;;;3.50;1.55;;;16.10;99.90;;;;;;5064740;28;20852;-73
2024/03/19 10:17:07;;;;;;;1.00;0.85;;;16.00;99.90;;;;;;5064667;28;20036;-73
2024/03/19 10:19:32;;;;;;;2.53;0.90;;;15.80;99.90;;;;;;5061063;28;20063;-74
2024/03/19 10:22:02;;;;;;;1.95;0.80;;;15.80;99.90;;;;;;5069972;28;20492;-73
2024/03/19 10:24:27;;;;;;;1.58;0.40;;;15.70;99.90;;;;;;5044502;28;20041;-73
2024/03/19 10:26:54;;;;;;;2.22;0.47;;;15.60;99.90;;;;;;5074926;28;20350;-72
2024/03/19 10:29:20;;;;;;;1.60;0.60;;;15.60;99.90;;;;;;5074670;28;20044;-73
2024/03/19 10:31:46;;;;;;;1.35;0.63;;;15.60;99.90;;;;;;5061908;28;20039;-73
2024/03/19 10:34:25;;;;;;;1.98;0.63;;;15.60;99.90;;;;;;5062167;28;20519;-73
2024/03/19 10:36:52;;;;;;;0.95;0.32;;;15.50;99.90;;;;;;5064295;28;20032;-73
2024/03/19 10:39:20;;;;;;;2.03;0.50;;;15.50;99.90;;;;;;5057998;28;20105;-73
2024/03/19 10:41:51;;;;;;;1.90;0.70;;;15.50;99.90;;;;;;5064009;28;20119;-73
2024/03/19 10:44:21;;;;;;;2.90;0.70;;;15.40;99.90;;;;;;5056999;28;20044;-73
2024/03/19 10:46:50;;;;;;;1.60;0.50;;;15.30;99.90;;;;;;5068154;28;20033;-73
2024/03/19 10:49:22;;;;;;;2.05;0.68;;;15.40;99.90;;;;;;5056938;28;20119;-73
2024/03/19 10:51:51;;;;;;;0.77;0.45;;;15.50;99.90;;;;;;5075815;28;20118;-73
2024/03/19 10:54:19;;;;;;;1.52;0.57;;;15.60;99.90;;;;;;5058529;28;20460;-73
2024/03/19 10:56:46;;;;;;;2.22;1.00;;;15.80;99.90;;;;;;5062577;28;20468;-73
2024/03/19 10:59:14;;;;;;;1.23;0.43;;;15.80;99.90;;;;;;5059913;28;20059;-73
2024/03/19 11:01:46;;;;;;;2.60;0.57;;;15.80;99.90;;;;;;5062289;28;20042;-73
2024/03/19 11:04:16;;;;;;;1.48;0.68;;;15.70;99.90;;;;;;5068952;28;20366;-73
2024/03/19 11:06:53;;;;;;;1.75;0.93;;;15.70;99.90;;;;;;5061164;28;20492;-72
2024/03/19 11:09:21;;;;;;;1.77;0.80;;;15.70;99.90;;;;;;5058774;28;20043;-73
2024/03/19 11:11:55;;;;;;;1.52;0.65;;;15.80;99.90;;;;;;5063170;28;20063;-73
2024/03/19 11:14:26;;;;;;;0.88;0.32;;;15.90;99.90;;;;;;5062495;28;20041;-73
2024/03/19 11:16:51;;;;;;;2.28;0.73;;;16.00;99.90;;;;;;5063649;28;20033;-73
2024/03/19 11:19:28;;;;;;;3.92;0.80;;;15.90;99.90;;;;;;5064485;28;20363;-73
2024/03/19 11:21:57;;;;;;;1.80;0.70;;;15.90;99.90;;;;;;5060129;28;20037;-73
2024/03/19 11:24:24;;;;;;;0.98;0.57;;;15.80;99.90;;;;;;5059295;28;20049;-73
2024/03/19 11:26:54;;;;;;;1.58;0.75;;;15.70;99.90;;;;;;5065120;28;20510;-73
2024/03/19 11:29:23;;;;;;;2.63;0.77;;;15.60;99.90;;;;;;5052015;28;20087;-73
2024/03/19 11:31:49;;;;;;;2.13;0.77;;;15.60;99.90;;;;;;5070008;28;20549;-73
2024/03/19 11:34:15;;;;;;;2.33;0.85;;;15.50;99.90;;;;;;5059665;28;20139;-73
2024/03/19 11:36:48;;;;;;;1.88;0.63;;;15.40;99.90;;;;;;5055461;28;20032;-74
2024/03/19 11:39:15;;;;;;;5.03;0.88;;;15.30;99.90;;;;;;5048744;28;20048;-73
2024/03/19 11:41:42;;;;;;;1.73;1.05;;;15.30;99.90;;;;;;5054747;28;20040;-74
2024/03/19 11:44:17;;;;;;;1.17;0.60;;;15.10;99.90;;;;;;5057633;28;20404;-74
2024/03/19 11:46:45;;;;;;;1.98;0.95;;;15.10;99.90;;;;;;5081604;28;20294;-74
2024/03/19 11:49:30;;;;;;;1.83;0.95;;;15.20;99.90;;;;;;5058317;28;20133;-74
2024/03/19 11:52:03;;;;;;;0.98;0.43;;;15.20;99.90;;;;;;5093378;28;20419;-74
2024/03/19 11:54:31;;;;;;;1.65;0.57;;;15.20;99.90;;;;;;5065539;28;20032;-73
2024/03/19 11:56:57;;;;;;;2.15;0.93;;;15.20;99.90;;;;;;5098545;28;20135;-74
2024/03/19 11:59:24;;;;;;;2.30;1.00;;;15.30;99.90;;;;;;5065445;28;20458;-74
2024/03/19 12:01:52;;;;;;;2.83;1.20;;;15.40;99.90;;;;;;5050365;28;20037;-75
2024/03/19 12:04:19;;;;;;;1.63;0.70;;;15.50;99.90;;;;;;5054000;28;20412;-74
2024/03/19 12:06:48;;;;;;;5.75;1.38;;;15.70;99.90;;;;;;5064528;28;20055;-73
2024/03/19 12:09:16;;;;;;;1.77;0.88;;;15.80;99.90;;;;;;5050212;28;20041;-74
2024/03/19 12:11:43;;;;;;;1.83;1.05;;;15.90;99.90;;;;;;5053744;28;20075;-74
2024/03/19 12:14:15;;;;;;;2.53;1.17;;;16.10;99.90;;;;;;5065486;28;20035;-74
2024/03/19 12:16:42;;;;;;;1.00;0.60;;;16.40;99.90;;;;;;5064921;28;20115;-74
2024/03/19 12:19:14;;;;;;;3.53;1.23;;;16.60;99.90;;;;;;5063536;28;20055;-74
2024/03/19 12:21:44;;;;;;;2.45;1.17;;;16.70;99.90;;;;;;5063569;28;20051;-74
2024/03/19 12:24:14;;;;;;;1.95;0.88;;;16.90;99.90;;;;;;5063418;28;20131;-73
2024/03/19 12:26:46;;;;;;;3.28;0.88;;;17.40;99.90;;;;;;5059300;28;20032;-74
2024/03/19 12:29:16;;;;;;;1.27;0.68;;;17.70;99.90;;;;;;5057384;28;20040;-74
2024/03/19 12:31:49;;;;;;;2.95;1.10;;;17.90;99.90;;;;;;5059323;28;20040;-74
2024/03/19 12:37:08;;;;;;;1.52;0.50;;;17.90;99.90;;;;;;5058408;28;20101;-74
2024/03/19 12:39:33;;;;;;;2.63;0.82;;;17.70;99.90;;;;;;5066528;28;20044;-74
2024/03/19 12:41:59;;;;;;;1.33;0.60;;;17.70;99.90;;;;;;5059119;28;20041;-74
2024/03/19 12:44:27;;;;;;;1.38;0.70;;;17.80;99.90;;;;;;5062630;28;20043;-74
2024/03/19 12:46:53;;;;;;;1.02;0.50;;;18.30;99.90;;;;;;5069015;28;20048;-74
2024/03/19 12:49:24;;;;;;;1.33;0.88;;;18.70;99.90;;;;;;5064498;28;20048;-75
2024/03/19 12:51:50;;;;;;;2.28;0.70;;;18.40;99.90;;;;;;5086435;28;20424;-74
2024/03/19 12:54:16;;;;;;;2.20;0.68;;;18.50;99.90;;;;;;5062927;28;20100;-74